createdAt,value
2019-05-23T00:00:43.892Z,1.37
2019-05-23T00:03:14.895Z,1.70
2019-05-23T00:05:48.909Z,1.60
2019-05-23T00:08:21.715Z,1.70
2019-05-23T00:11:22.161Z,1.60
2019-05-23T00:14:01.023Z,1.50
2019-05-23T00:16:31.841Z,1.33
2019-05-23T00:19:02.331Z,1.43
2019-05-23T00:21:32.974Z,1.50
2019-05-23T00:24:03.002Z,1.43
2019-05-23T00:26:34.579Z,1.50
2019-05-23T00:29:10.392Z,1.60
2019-05-23T00:31:54.031Z,1.50
2019-05-23T00:34:25.420Z,1.60
2019-05-23T00:36:55.098Z,1.40
2019-05-23T00:39:26.131Z,1.60
2019-05-23T00:41:55.960Z,1.53
2019-05-23T00:44:25.920Z,1.40
2019-05-23T00:46:55.970Z,1.70
2019-05-23T00:49:26.829Z,1.63
2019-05-23T00:51:57.069Z,1.77
2019-05-23T00:54:27.131Z,1.53
2019-05-23T00:56:58.754Z,1.80
2019-05-23T00:59:28.499Z,1.70
2019-05-23T01:01:58.225Z,1.87
2019-05-23T01:04:29.978Z,1.70
2019-05-23T01:06:59.825Z,1.47
2019-05-23T01:09:30.026Z,1.53
2019-05-23T01:11:59.740Z,2.77
2019-05-23T01:14:29.999Z,3.13
2019-05-23T01:17:01.162Z,3.53
2019-05-23T01:19:32.193Z,3.50
2019-05-23T01:22:07.749Z,3.10
2019-05-23T01:24:42.494Z,3.30
2019-05-23T01:27:12.970Z,3.00
2019-05-23T01:29:49.654Z,3.13
2019-05-23T01:32:27.583Z,3.80
2019-05-23T01:34:57.908Z,4.10
2019-05-23T01:37:28.045Z,4.53
2019-05-23T01:39:58.555Z,4.47
2019-05-23T01:42:28.337Z,3.60
2019-05-23T01:44:59.424Z,3.50
2019-05-23T01:47:29.352Z,2.97
2019-05-23T01:49:59.981Z,2.77
2019-05-23T01:52:30.042Z,2.40
2019-05-23T01:55:00.307Z,2.20
2019-05-23T01:57:29.864Z,2.33
2019-05-23T02:00:10.409Z,2.20
2019-05-23T02:02:32.344Z,2.13
2019-05-23T02:05:02.217Z,2.00
2019-05-23T02:07:31.851Z,1.73
2019-05-23T02:10:02.079Z,1.80
2019-05-23T02:12:33.565Z,1.70
2019-05-23T02:15:04.154Z,2.03
2019-05-23T02:17:33.651Z,1.83
2019-05-23T02:20:04.531Z,1.90
2019-05-23T02:22:34.430Z,1.90
2019-05-23T02:25:06.985Z,1.70
2019-05-23T02:27:37.244Z,1.70
2019-05-23T02:30:30.076Z,1.80
2019-05-23T02:32:41.294Z,1.67
2019-05-23T02:35:11.589Z,1.70
2019-05-23T02:38:00.045Z,1.60
2019-05-23T02:40:51.575Z,1.63
2019-05-23T02:43:23.340Z,1.70
2019-05-23T02:45:57.652Z,1.80
2019-05-23T02:48:35.720Z,1.67
2019-05-23T02:51:08.900Z,1.73
2019-05-23T02:53:40.585Z,2.00
2019-05-23T02:56:13.419Z,1.97
2019-05-23T02:59:15.640Z,1.57
2019-05-23T03:02:51.647Z,1.50
2019-05-23T03:05:25.462Z,1.63
2019-05-23T03:07:56.653Z,1.57
2019-05-23T03:10:28.647Z,1.40
2019-05-23T03:12:59.349Z,1.63
2019-05-23T03:15:29.346Z,1.30
2019-05-23T03:18:01.681Z,1.30
2019-05-23T03:20:31.523Z,1.70
2019-05-23T03:23:08.303Z,1.60
2019-05-23T03:26:16.696Z,1.50
2019-05-23T03:28:46.109Z,1.40
2019-05-23T03:31:29.743Z,1.47
2019-05-23T03:33:54.742Z,1.40
2019-05-23T03:36:25.063Z,1.47
2019-05-23T03:38:54.810Z,1.30
2019-05-23T03:41:25.390Z,1.30
2019-05-23T03:43:55.227Z,1.43
2019-05-23T03:46:27.140Z,1.33
2019-05-23T03:48:57.963Z,1.20
2019-05-23T03:51:28.687Z,1.20
2019-05-23T03:53:58.574Z,1.30
2019-05-23T03:56:29.443Z,2.00
2019-05-23T03:59:00.505Z,1.67
2019-05-23T04:01:47.013Z,2.00
2019-05-23T04:04:03.629Z,1.83
2019-05-23T04:06:34.113Z,1.80
2019-05-23T04:09:06.654Z,1.73
2019-05-23T04:11:37.028Z,1.70
2019-05-23T04:14:07.318Z,1.67
2019-05-23T04:16:36.776Z,1.80
2019-05-23T04:19:06.532Z,1.70
2019-05-23T04:21:36.535Z,1.80
2019-05-23T04:24:06.353Z,2.00
2019-05-23T04:26:36.292Z,2.00
2019-05-23T04:29:06.204Z,1.60
2019-05-23T04:31:35.588Z,1.50
2019-05-23T04:34:05.290Z,1.30
2019-05-23T04:36:34.761Z,1.40
2019-05-23T04:39:05.516Z,1.50
2019-05-23T04:41:35.160Z,1.50
2019-05-23T04:44:05.547Z,1.27
2019-05-23T04:46:35.597Z,1.30
2019-05-23T04:49:08.000Z,1.20
2019-05-23T04:51:37.579Z,1.20
2019-05-23T04:54:07.549Z,1.23
2019-05-23T04:56:37.356Z,1.37
2019-05-23T04:59:07.016Z,1.40
2019-05-23T05:01:37.350Z,1.37
2019-05-23T05:04:07.818Z,1.73
2019-05-23T05:06:38.019Z,1.30
2019-05-23T05:09:11.151Z,1.23
2019-05-23T05:11:41.176Z,1.57
2019-05-23T05:14:11.050Z,1.40
2019-05-23T05:16:40.720Z,1.37
2019-05-23T05:19:10.655Z,1.40
2019-05-23T05:21:40.297Z,1.30
2019-05-23T05:24:10.195Z,1.30
2019-05-23T05:26:40.303Z,1.50
2019-05-23T05:29:09.829Z,1.30
2019-05-23T05:31:39.714Z,1.67
2019-05-23T05:34:09.438Z,1.50
2019-05-23T05:36:39.562Z,1.53
2019-05-23T05:39:09.393Z,1.43
2019-05-23T05:41:39.339Z,1.40
2019-05-23T05:44:11.768Z,1.70
2019-05-23T05:46:41.353Z,1.60
2019-05-23T05:49:12.873Z,1.30
2019-05-23T05:51:42.581Z,1.27
2019-05-23T05:54:13.018Z,1.50
2019-05-23T05:56:42.626Z,1.50
2019-05-23T05:59:12.473Z,1.50
2019-05-23T06:01:42.745Z,1.30
2019-05-23T06:04:12.381Z,1.30
2019-05-23T06:06:50.077Z,1.40
2019-05-23T06:09:23.718Z,1.70
2019-05-23T06:11:53.521Z,1.50
2019-05-23T06:14:23.091Z,1.53
2019-05-23T06:16:55.029Z,1.50
2019-05-23T06:19:25.128Z,1.60
2019-05-23T06:21:54.957Z,1.40
2019-05-23T06:24:42.851Z,1.60
2019-05-23T06:26:56.236Z,1.67
2019-05-23T06:29:25.900Z,1.60
2019-05-23T06:31:56.837Z,1.30
2019-05-23T06:34:26.835Z,1.53
2019-05-23T06:36:56.813Z,1.40
2019-05-23T06:39:27.005Z,1.50
2019-05-23T06:41:57.161Z,1.60
2019-05-23T06:44:27.251Z,1.70
2019-05-23T06:46:57.212Z,1.60
2019-05-23T06:49:26.806Z,1.50
2019-05-23T06:51:56.180Z,1.70
2019-05-23T06:54:25.944Z,1.80
2019-05-23T06:56:55.410Z,1.60
2019-05-23T06:59:25.236Z,1.60
2019-05-23T07:01:55.420Z,1.50
2019-05-23T07:04:24.998Z,1.50
2019-05-23T07:06:54.668Z,1.70
2019-05-23T07:09:24.306Z,1.43
2019-05-23T07:11:57.601Z,1.50
2019-05-23T07:14:27.590Z,1.40
2019-05-23T07:16:57.182Z,1.37
2019-05-23T07:19:27.110Z,1.40
2019-05-23T07:21:56.766Z,1.40
2019-05-23T07:24:26.937Z,1.50
2019-05-23T07:26:56.713Z,1.73
2019-05-23T07:29:26.874Z,1.40
2019-05-23T07:31:56.961Z,1.40
2019-05-23T07:34:26.579Z,1.50
2019-05-23T07:36:56.335Z,1.70
2019-05-23T07:39:26.126Z,1.60
2019-05-23T07:41:55.598Z,1.60
2019-05-23T07:44:25.532Z,2.00
2019-05-23T07:46:55.243Z,1.47
2019-05-23T07:49:24.999Z,1.40
2019-05-23T07:51:54.541Z,1.90
2019-05-23T07:54:42.354Z,1.40
2019-05-23T07:57:14.168Z,1.47
2019-05-23T07:59:44.401Z,1.50
2019-05-23T08:02:29.508Z,1.37
2019-05-23T08:04:59.622Z,1.50
2019-05-23T08:07:32.878Z,1.47
2019-05-23T08:10:01.749Z,1.60
2019-05-23T08:12:31.137Z,1.60
2019-05-23T08:15:01.050Z,1.33
2019-05-23T08:17:31.494Z,1.50
2019-05-23T08:20:01.250Z,1.70
2019-05-23T08:22:31.371Z,1.70
2019-05-23T08:25:00.852Z,1.73
2019-05-23T08:27:31.091Z,1.10
2019-05-23T08:30:02.375Z,1.20
2019-05-23T08:32:32.075Z,1.50
2019-05-23T08:35:02.684Z,1.30
2019-05-23T08:37:32.482Z,1.30
2019-05-23T08:40:02.077Z,1.33
2019-05-23T08:42:33.046Z,1.70
2019-05-23T08:45:03.707Z,1.57
2019-05-23T08:47:33.285Z,1.50
2019-05-23T08:50:03.158Z,1.50
2019-05-23T08:52:33.278Z,1.50
2019-05-23T08:55:08.303Z,1.70
2019-05-23T08:57:37.807Z,1.73
2019-05-23T09:00:07.892Z,1.80
2019-05-23T09:02:37.751Z,1.70
2019-05-23T09:05:08.376Z,1.30
2019-05-23T09:07:38.171Z,1.47
2019-05-23T09:10:08.109Z,1.30
2019-05-23T09:12:38.570Z,1.33
2019-05-23T09:15:10.007Z,1.37
2019-05-23T09:17:52.532Z,1.30
2019-05-23T09:20:11.672Z,1.40
2019-05-23T09:22:41.782Z,1.33
2019-05-23T09:25:13.100Z,1.10
2019-05-23T09:27:42.578Z,1.20
2019-05-23T09:30:12.969Z,1.20
2019-05-23T09:32:42.606Z,1.23
2019-05-23T09:35:20.751Z,1.00
2019-05-23T09:37:45.016Z,1.10
2019-05-23T09:40:14.992Z,1.20
2019-05-23T09:42:44.509Z,1.20
2019-05-23T09:45:14.700Z,1.40
2019-05-23T09:47:44.409Z,2.27
2019-05-23T09:50:16.501Z,2.20
2019-05-23T09:52:46.108Z,2.20
2019-05-23T09:55:16.280Z,1.70
2019-05-23T09:57:45.772Z,2.13
2019-05-23T10:00:18.537Z,6.40
2019-05-23T10:02:48.354Z,2.10
2019-05-23T10:05:18.236Z,1.90
2019-05-23T10:07:48.069Z,1.50
2019-05-23T10:10:19.225Z,1.77
2019-05-23T10:12:48.910Z,1.23
2019-05-23T10:15:40.490Z,2.10
2019-05-23T10:18:13.988Z,1.43
2019-05-23T10:20:43.752Z,1.47
2019-05-23T10:23:13.480Z,1.53
2019-05-23T10:25:42.856Z,1.37
2019-05-23T10:28:12.415Z,1.30
2019-05-23T10:30:42.298Z,1.27
2019-05-23T10:33:13.236Z,1.20
2019-05-23T10:35:59.164Z,1.23
2019-05-23T10:38:14.353Z,1.50
2019-05-23T10:40:44.301Z,1.30
2019-05-23T10:43:14.978Z,1.10
2019-05-23T10:45:44.597Z,1.20
2019-05-23T10:48:15.698Z,1.20
2019-05-23T10:50:45.597Z,1.43
2019-05-23T10:53:17.019Z,1.20
2019-05-23T10:55:46.457Z,1.23
2019-05-23T10:58:17.081Z,1.30
2019-05-23T11:00:47.382Z,1.20
2019-05-23T11:03:17.612Z,1.30
2019-05-23T11:05:47.085Z,1.40
2019-05-23T11:08:17.502Z,1.40
2019-05-23T11:10:47.099Z,1.47
2019-05-23T11:13:16.725Z,1.43
2019-05-23T11:15:46.655Z,1.57
2019-05-23T11:18:16.847Z,1.57
2019-05-23T11:20:46.383Z,1.40
2019-05-23T11:23:20.452Z,1.50
2019-05-23T11:25:50.402Z,1.30
2019-05-23T11:28:20.141Z,1.40
2019-05-23T11:30:53.868Z,1.67
2019-05-23T11:33:24.268Z,1.40
2019-05-23T11:35:54.164Z,1.20
2019-05-23T11:38:25.111Z,1.40
2019-05-23T11:40:54.789Z,1.80
2019-05-23T11:43:24.296Z,1.30
2019-05-23T11:46:15.684Z,1.60
2019-05-23T11:48:45.496Z,1.40
2019-05-23T11:51:15.858Z,1.60
2019-05-23T11:54:04.045Z,1.50
2019-05-23T11:56:17.312Z,1.47
2019-05-23T11:58:47.041Z,1.40
2019-05-23T12:01:28.075Z,1.43
2019-05-23T12:04:01.433Z,1.43
2019-05-23T12:06:53.439Z,1.53
2019-05-23T12:09:08.806Z,1.60
2019-05-23T12:11:42.465Z,1.50
2019-05-23T12:14:10.239Z,1.60
2019-05-23T12:16:40.222Z,1.97
2019-05-23T12:19:09.778Z,1.60
2019-05-23T12:21:39.490Z,1.50
2019-05-23T12:24:09.062Z,1.53
2019-05-23T12:26:38.705Z,1.57
2019-05-23T12:29:08.173Z,1.67
2019-05-23T12:31:37.714Z,1.57
2019-05-23T12:34:07.088Z,1.60
2019-05-23T12:36:37.205Z,1.60
2019-05-23T12:39:09.327Z,1.40
2019-05-23T12:41:39.837Z,1.60
2019-05-23T12:44:09.796Z,1.40
2019-05-23T12:46:40.077Z,1.40
2019-05-23T12:49:26.757Z,1.60
2019-05-23T12:51:57.128Z,1.77
2019-05-23T12:54:26.817Z,1.70
2019-05-23T12:56:56.998Z,1.70
2019-05-23T12:59:27.189Z,1.80
2019-05-23T13:01:58.175Z,1.57
2019-05-23T13:04:28.665Z,1.60
2019-05-23T13:06:58.541Z,1.60
2019-05-23T13:09:28.332Z,1.90
2019-05-23T13:11:57.975Z,1.50
2019-05-23T13:14:27.865Z,1.70
2019-05-23T13:17:00.726Z,1.50
2019-05-23T13:19:30.236Z,1.80
2019-05-23T13:22:00.142Z,1.60
2019-05-23T13:24:50.587Z,1.60
2019-05-23T13:27:02.234Z,1.60
2019-05-23T13:29:31.888Z,1.47
2019-05-23T13:32:01.751Z,1.70
2019-05-23T13:34:31.581Z,1.60
2019-05-23T13:37:01.514Z,1.50
2019-05-23T13:39:31.151Z,1.67
2019-05-23T13:42:01.024Z,1.77
2019-05-23T13:44:35.292Z,1.90
2019-05-23T13:47:02.157Z,1.67
2019-05-23T13:49:32.366Z,1.50
2019-05-23T13:52:01.880Z,1.50
2019-05-23T13:54:35.942Z,1.60
2019-05-23T13:57:03.425Z,1.80
2019-05-23T13:59:33.693Z,1.50
2019-05-23T14:02:03.485Z,1.60
2019-05-23T14:04:33.045Z,1.43
2019-05-23T14:07:02.581Z,1.50
2019-05-23T14:09:32.995Z,1.50
2019-05-23T14:14:33.750Z,1.50
2019-05-23T14:17:22.592Z,1.80
2019-05-23T14:19:52.086Z,1.43
2019-05-23T14:22:22.353Z,1.50
2019-05-23T14:24:51.868Z,1.70
2019-05-23T14:27:40.625Z,1.43
2019-05-23T14:30:29.955Z,1.97
2019-05-23T14:33:01.311Z,1.60
2019-05-23T14:35:32.865Z,1.70
2019-05-23T14:38:04.071Z,1.63
2019-05-23T14:40:34.013Z,1.30
2019-05-23T14:43:09.879Z,1.43
2019-05-23T14:46:01.700Z,1.40
2019-05-23T14:49:05.474Z,1.37
2019-05-23T14:51:41.891Z,1.60
2019-05-23T14:54:16.079Z,1.47
2019-05-23T14:56:46.152Z,1.60
2019-05-23T14:59:15.905Z,1.60
2019-05-23T15:01:46.056Z,1.63
2019-05-23T15:04:15.769Z,1.87
2019-05-23T15:06:45.301Z,1.83
2019-05-23T15:09:14.705Z,2.13
2019-05-23T15:11:44.399Z,2.00
2019-05-23T15:14:14.079Z,2.03
2019-05-23T15:16:43.688Z,1.90
2019-05-23T15:19:13.422Z,1.80
2019-05-23T15:21:43.329Z,1.90
2019-05-23T15:24:12.889Z,1.73
2019-05-23T15:26:42.746Z,1.87
2019-05-23T15:29:12.383Z,1.70
2019-05-23T15:31:42.040Z,2.27
2019-05-23T15:34:11.417Z,2.30
2019-05-23T15:36:40.825Z,2.67
2019-05-23T15:39:11.058Z,2.20
2019-05-23T15:41:40.540Z,2.10
2019-05-23T15:44:24.526Z,2.00
2019-05-23T15:46:41.470Z,2.10
2019-05-23T15:49:13.335Z,2.20
2019-05-23T15:51:53.831Z,2.50
2019-05-23T15:54:49.109Z,2.20
2019-05-23T15:57:25.794Z,2.30
2019-05-23T16:00:06.092Z,2.20
2019-05-23T16:03:03.673Z,2.60
2019-05-23T16:05:33.533Z,2.20
2019-05-23T16:08:03.741Z,2.20
2019-05-23T16:10:33.683Z,2.30
2019-05-23T16:13:03.205Z,2.30
2019-05-23T16:15:32.734Z,2.23
2019-05-23T16:18:02.884Z,2.47
2019-05-23T16:20:32.414Z,3.13
2019-05-23T16:23:02.453Z,2.73
2019-05-23T16:25:31.840Z,2.20
2019-05-23T16:28:01.559Z,1.80
2019-05-23T16:30:31.916Z,1.80
2019-05-23T16:33:01.307Z,1.90
2019-05-23T16:35:30.858Z,1.63
2019-05-23T16:38:00.599Z,1.70
2019-05-23T16:40:30.299Z,1.57
2019-05-23T16:42:59.900Z,1.73
2019-05-23T16:45:29.490Z,1.90
2019-05-23T16:47:58.975Z,1.80
2019-05-23T16:50:28.363Z,2.00
2019-05-23T16:52:57.926Z,1.77
2019-05-23T16:55:37.346Z,2.10
2019-05-23T16:58:16.502Z,2.00
2019-05-23T17:01:23.555Z,2.10
2019-05-23T17:04:04.502Z,2.00
2019-05-23T17:06:44.010Z,1.87
2019-05-23T17:09:35.531Z,1.83
2019-05-23T17:12:24.348Z,1.70
2019-05-23T17:14:58.757Z,2.10
2019-05-23T17:18:01.534Z,1.80
2019-05-23T17:20:37.624Z,1.90
2019-05-23T17:23:17.642Z,1.70
2019-05-23T17:25:53.111Z,2.03
2019-05-23T17:28:27.612Z,2.30
2019-05-23T17:31:02.838Z,2.20
2019-05-23T17:33:32.333Z,2.27
2019-05-23T17:36:02.235Z,1.93
2019-05-23T17:38:31.750Z,2.10
2019-05-23T17:41:01.281Z,1.97
2019-05-23T17:43:31.045Z,1.90
2019-05-23T17:46:01.014Z,2.00
2019-05-23T17:48:30.773Z,2.03
2019-05-23T17:51:00.356Z,2.43
2019-05-23T17:53:29.830Z,2.27
2019-05-23T17:55:59.343Z,2.10
2019-05-23T17:58:29.396Z,2.90
2019-05-23T18:00:59.006Z,1.90
2019-05-23T18:03:29.167Z,1.53
2019-05-23T18:05:58.826Z,1.70
2019-05-23T18:08:29.518Z,1.80
2019-05-23T18:10:59.206Z,1.83
2019-05-23T18:13:29.035Z,2.10
2019-05-23T18:15:59.181Z,2.00
2019-05-23T18:18:29.813Z,1.93
2019-05-23T18:20:59.901Z,1.83
2019-05-23T18:23:29.702Z,2.00
2019-05-23T18:25:59.965Z,2.17
2019-05-23T18:28:30.779Z,2.40
2019-05-23T18:31:11.010Z,2.00
2019-05-23T18:33:41.632Z,2.13
2019-05-23T18:36:11.494Z,1.87
2019-05-23T18:38:41.575Z,1.90
2019-05-23T18:41:11.641Z,2.10
2019-05-23T18:43:41.905Z,2.33
2019-05-23T18:46:15.396Z,2.17
2019-05-23T18:48:44.817Z,2.03
2019-05-23T18:51:14.924Z,2.40
2019-05-23T18:53:44.524Z,2.17
2019-05-23T18:56:14.692Z,2.20
2019-05-23T18:58:44.189Z,2.40
2019-05-23T19:01:26.572Z,2.30
2019-05-23T19:03:57.119Z,2.50
2019-05-23T19:06:26.987Z,2.60
2019-05-23T19:08:57.276Z,3.50
2019-05-23T19:11:27.607Z,2.80
2019-05-23T19:13:57.743Z,2.53
2019-05-23T19:16:28.417Z,2.73
2019-05-23T19:18:58.438Z,2.13
2019-05-23T19:21:29.675Z,2.30
2019-05-23T19:23:59.890Z,1.90
2019-05-23T19:26:30.101Z,1.90
2019-05-23T19:29:00.273Z,1.83
2019-05-23T19:31:29.925Z,1.60
2019-05-23T19:33:59.554Z,1.50
2019-05-23T19:36:29.081Z,1.77
2019-05-23T19:38:59.147Z,1.67
2019-05-23T19:41:37.312Z,1.67
2019-05-23T19:43:59.840Z,1.50
2019-05-23T19:46:29.995Z,1.50
2019-05-23T19:48:59.776Z,1.30
2019-05-23T19:51:29.734Z,1.50
2019-05-23T19:53:59.490Z,1.40
2019-05-23T19:56:29.442Z,1.50
2019-05-23T19:58:58.960Z,1.40
2019-05-23T20:01:32.127Z,1.50
2019-05-23T20:04:02.047Z,1.60
2019-05-23T20:06:32.228Z,1.60
2019-05-23T20:09:01.817Z,1.70
2019-05-23T20:11:31.263Z,2.00
2019-05-23T20:14:01.082Z,1.83
2019-05-23T20:16:31.324Z,1.83
2019-05-23T20:19:01.045Z,2.03
2019-05-23T20:21:30.785Z,2.07
2019-05-23T20:24:00.531Z,3.00
2019-05-23T20:26:30.302Z,3.13
2019-05-23T20:29:03.168Z,3.20
2019-05-23T20:31:30.967Z,3.33
2019-05-23T20:34:00.970Z,3.60
2019-05-23T20:36:30.493Z,3.57
2019-05-23T20:39:00.324Z,3.80
2019-05-23T20:41:30.409Z,4.13
2019-05-23T20:44:00.015Z,4.20
2019-05-23T20:46:29.554Z,4.77
2019-05-23T20:48:59.400Z,4.40
2019-05-23T20:51:29.663Z,4.67
2019-05-23T20:53:59.274Z,5.10
2019-05-23T20:56:28.663Z,4.40
2019-05-23T20:58:58.657Z,4.97
2019-05-23T21:01:32.628Z,5.23
2019-05-23T21:04:02.320Z,5.27
2019-05-23T21:06:31.972Z,5.20
2019-05-23T21:09:01.704Z,4.50
2019-05-23T21:11:31.453Z,3.23
2019-05-23T21:14:01.349Z,2.30
2019-05-23T21:16:30.836Z,2.00
2019-05-23T21:19:28.310Z,1.90
2019-05-23T21:21:58.142Z,1.93
2019-05-23T21:24:28.013Z,1.90
2019-05-23T21:26:57.395Z,2.00
2019-05-23T21:29:26.908Z,2.30
2019-05-23T21:31:56.390Z,2.20
2019-05-23T21:34:25.833Z,2.37
2019-05-23T21:36:55.467Z,2.30
2019-05-23T21:39:25.122Z,1.93
2019-05-23T21:41:55.013Z,1.93
2019-05-23T21:44:24.484Z,2.00
2019-05-23T21:46:53.992Z,1.90
2019-05-23T21:49:23.582Z,1.80
2019-05-23T21:51:53.113Z,1.90
2019-05-23T21:54:22.499Z,2.20
2019-05-23T21:56:52.137Z,2.30
2019-05-23T21:59:21.818Z,3.13
2019-05-23T22:01:58.143Z,3.47
2019-05-23T22:04:34.317Z,3.40
2019-05-23T22:07:06.053Z,2.97
2019-05-23T22:09:35.607Z,3.00
2019-05-23T22:12:06.185Z,3.23
2019-05-23T22:14:36.608Z,2.77
2019-05-23T22:17:06.235Z,2.90
2019-05-23T22:19:36.139Z,2.83
2019-05-23T22:22:06.477Z,2.77
2019-05-23T22:24:36.254Z,2.63
2019-05-23T22:27:09.427Z,2.80
2019-05-23T22:29:38.881Z,2.60
2019-05-23T22:32:09.917Z,2.80
2019-05-23T22:34:44.750Z,2.93
2019-05-23T22:37:18.017Z,2.47
2019-05-23T22:39:47.906Z,2.80
2019-05-23T22:42:18.979Z,3.20
2019-05-23T22:44:48.529Z,2.60
2019-05-23T22:47:18.316Z,2.50
2019-05-23T22:49:48.301Z,2.40
2019-05-23T22:52:17.885Z,2.53
2019-05-23T22:54:47.542Z,2.40
2019-05-23T22:57:17.179Z,2.33
2019-05-23T22:59:46.999Z,2.70
2019-05-23T23:02:18.052Z,2.57
2019-05-23T23:04:47.937Z,2.23
2019-05-23T23:07:18.344Z,2.73
2019-05-23T23:09:47.819Z,2.43
2019-05-23T23:12:17.942Z,2.27
2019-05-23T23:14:47.436Z,2.40
2019-05-23T23:17:18.696Z,2.33
2019-05-23T23:19:48.109Z,2.20
2019-05-23T23:22:17.591Z,2.33
2019-05-23T23:24:47.429Z,2.30
2019-05-23T23:27:18.151Z,2.00
2019-05-23T23:29:47.819Z,2.50
2019-05-23T23:32:17.195Z,2.57
2019-05-23T23:34:46.860Z,2.80
2019-05-23T23:37:16.450Z,2.63
2019-05-23T23:39:45.924Z,2.60
2019-05-23T23:42:15.624Z,3.20
2019-05-23T23:44:44.654Z,3.40
2019-05-23T23:47:32.420Z,3.40
2019-05-23T23:50:19.577Z,3.97
2019-05-23T23:53:06.922Z,3.47
2019-05-23T23:55:54.177Z,3.77
2019-05-23T23:58:22.760Z,3.30
